createdAt,value
2022-12-20T00:00:27.409Z,967.45
2022-12-20T00:01:27.649Z,967.38
2022-12-20T00:02:27.715Z,967.4
2022-12-20T00:03:27.493Z,967.42
2022-12-20T00:04:27.462Z,967.43
2022-12-20T00:06:27.518Z,967.46
2022-12-20T00:07:27.428Z,967.49
2022-12-20T00:08:27.538Z,967.5
2022-12-20T00:09:27.424Z,967.49
2022-12-20T00:10:28.755Z,967.5
2022-12-20T00:11:27.549Z,967.48
2022-12-20T00:12:27.513Z,967.51
2022-12-20T00:13:27.570Z,967.49
2022-12-20T00:14:27.545Z,967.54
2022-12-20T00:16:27.586Z,967.61
2022-12-20T00:17:27.457Z,967.59
2022-12-20T00:18:27.514Z,967.62
2022-12-20T00:19:27.443Z,967.59
2022-12-20T00:20:27.447Z,967.62
2022-12-20T00:21:28.825Z,967.58
2022-12-20T00:22:27.474Z,967.56
2022-12-20T00:23:27.549Z,967.52
2022-12-20T00:24:27.650Z,967.54
2022-12-20T00:26:27.607Z,967.5
2022-12-20T00:27:27.469Z,967.54
2022-12-20T00:29:27.558Z,967.47
2022-12-20T00:30:27.473Z,967.46
2022-12-20T00:32:27.580Z,967.43
2022-12-20T00:34:27.534Z,967.49
2022-12-20T00:35:27.574Z,967.51
2022-12-20T00:36:27.665Z,967.49
2022-12-20T00:37:27.501Z,967.51
2022-12-20T00:38:27.563Z,967.53
2022-12-20T00:39:28.916Z,967.58
2022-12-20T00:40:27.603Z,967.59
2022-12-20T00:41:27.584Z,967.53
2022-12-20T00:42:27.554Z,967.52
2022-12-20T00:43:27.505Z,967.51
2022-12-20T00:45:27.662Z,967.5
2022-12-20T00:46:27.659Z,967.47
2022-12-20T00:47:27.582Z,967.43
2022-12-20T00:48:27.655Z,967.37
2022-12-20T00:50:27.579Z,967.36
2022-12-20T00:51:27.673Z,967.38
2022-12-20T00:52:27.625Z,967.39
2022-12-20T00:53:27.596Z,967.34
2022-12-20T00:54:27.548Z,967.32
2022-12-20T00:55:27.626Z,967.29
2022-12-20T00:56:27.809Z,967.3
2022-12-20T00:57:27.542Z,967.32
2022-12-20T00:58:27.627Z,967.3
2022-12-20T00:59:27.600Z,967.28
2022-12-20T01:00:27.659Z,967.26
2022-12-20T01:01:27.701Z,967.29
2022-12-20T01:02:27.938Z,967.26
2022-12-20T01:03:27.591Z,967.25
2022-12-20T01:04:27.641Z,967.24
2022-12-20T01:05:27.709Z,967.28
2022-12-20T01:06:27.676Z,967.25
2022-12-20T01:07:27.641Z,967.26
2022-12-20T01:08:28.551Z,967.29
2022-12-20T01:09:27.554Z,967.28
2022-12-20T01:11:27.675Z,967.32
2022-12-20T01:12:27.609Z,967.31
2022-12-20T01:13:27.658Z,967.27
2022-12-20T01:14:27.596Z,967.21
2022-12-20T01:15:27.705Z,967.23
2022-12-20T01:16:27.632Z,967.24
2022-12-20T01:17:27.727Z,967.27
2022-12-20T01:18:27.699Z,967.29
2022-12-20T01:19:27.655Z,967.31
2022-12-20T01:20:27.584Z,967.33
2022-12-20T01:21:27.700Z,967.34
2022-12-20T01:24:27.726Z,967.32
2022-12-20T01:25:27.681Z,967.31
2022-12-20T01:27:27.722Z,967.25
2022-12-20T01:28:27.680Z,967.27
2022-12-20T01:29:27.760Z,967.21
2022-12-20T01:30:27.708Z,967.16
2022-12-20T01:31:27.828Z,967.19
2022-12-20T01:32:27.619Z,967.17
2022-12-20T01:33:27.704Z,967.16
2022-12-20T01:35:27.687Z,967.15
2022-12-20T01:36:27.814Z,967.17
2022-12-20T01:37:27.786Z,967.18
2022-12-20T01:38:27.771Z,967.2
2022-12-20T01:39:27.731Z,967.19
2022-12-20T01:40:27.794Z,967.23
2022-12-20T01:41:27.651Z,967.25
2022-12-20T01:42:27.638Z,967.27
2022-12-20T01:43:27.642Z,967.25
2022-12-20T01:45:27.767Z,967.24
2022-12-20T01:48:27.861Z,967.2
2022-12-20T01:49:27.832Z,967.22
2022-12-20T01:50:27.784Z,967.18
2022-12-20T01:51:27.656Z,967.21
2022-12-20T01:52:28.745Z,967.17
2022-12-20T01:53:27.779Z,967.14
2022-12-20T01:54:27.672Z,967.13
2022-12-20T01:55:27.709Z,967.08
2022-12-20T01:56:27.780Z,967.04
2022-12-20T01:57:27.777Z,967.02
2022-12-20T01:58:27.830Z,967
2022-12-20T01:59:27.688Z,967.01
2022-12-20T02:00:27.677Z,966.99
2022-12-20T02:01:27.869Z,967
2022-12-20T02:02:27.792Z,966.97
2022-12-20T02:03:27.759Z,966.96
2022-12-20T02:04:27.691Z,966.91
2022-12-20T02:05:27.696Z,966.94
2022-12-20T02:06:27.812Z,966.92
2022-12-20T02:07:27.697Z,966.9
2022-12-20T02:08:27.800Z,966.88
2022-12-20T02:09:27.864Z,966.87
2022-12-20T02:10:27.832Z,966.92
2022-12-20T02:12:27.808Z,966.9
2022-12-20T02:14:27.747Z,966.92
2022-12-20T02:15:27.877Z,966.97
2022-12-20T02:16:27.916Z,966.96
2022-12-20T02:18:27.887Z,966.94
2022-12-20T02:19:27.848Z,966.92
2022-12-20T02:20:27.828Z,966.88
2022-12-20T02:21:27.883Z,966.86
2022-12-20T02:22:27.850Z,966.88
2022-12-20T02:23:27.830Z,966.84
2022-12-20T02:25:27.864Z,966.79
2022-12-20T02:26:27.835Z,966.8
2022-12-20T02:27:27.776Z,966.81
2022-12-20T02:30:27.815Z,966.76
2022-12-20T02:31:27.784Z,966.77
2022-12-20T02:32:27.842Z,966.79
2022-12-20T02:33:27.908Z,966.77
2022-12-20T02:34:27.863Z,966.75
2022-12-20T02:35:27.846Z,966.73
2022-12-20T02:36:27.905Z,966.72
2022-12-20T02:37:27.887Z,966.68
2022-12-20T02:39:27.902Z,966.67
2022-12-20T02:40:27.917Z,966.64
2022-12-20T02:41:27.838Z,966.65
2022-12-20T02:42:27.817Z,966.61
2022-12-20T02:43:27.876Z,966.65
2022-12-20T02:45:27.924Z,966.66
2022-12-20T02:46:27.953Z,966.62
2022-12-20T02:47:27.851Z,966.6
2022-12-20T02:48:27.798Z,966.62
2022-12-20T02:50:29.058Z,966.59
2022-12-20T02:51:27.814Z,966.57
2022-12-20T02:53:27.956Z,966.53
2022-12-20T02:54:27.920Z,966.52
2022-12-20T02:55:27.886Z,966.49
2022-12-20T02:56:27.830Z,966.43
2022-12-20T02:57:27.814Z,966.4
2022-12-20T02:58:27.817Z,966.34
2022-12-20T02:59:29.121Z,966.3
2022-12-20T03:00:27.938Z,966.29
2022-12-20T03:01:28.072Z,966.26
2022-12-20T03:02:28.109Z,966.27
2022-12-20T03:03:27.983Z,966.26
2022-12-20T03:04:27.901Z,966.29
2022-12-20T03:05:29.174Z,966.27
2022-12-20T03:06:27.946Z,966.28
2022-12-20T03:07:27.925Z,966.27
2022-12-20T03:08:27.852Z,966.26
2022-12-20T03:09:27.848Z,966.28
2022-12-20T03:10:27.911Z,966.29
2022-12-20T03:11:27.849Z,966.31
2022-12-20T03:12:27.846Z,966.33
2022-12-20T03:14:27.982Z,966.35
2022-12-20T03:16:27.948Z,966.34
2022-12-20T03:17:27.858Z,966.35
2022-12-20T03:19:27.880Z,966.36
2022-12-20T03:20:27.992Z,966.31
2022-12-20T03:21:27.964Z,966.35
2022-12-20T03:22:27.918Z,966.37
2022-12-20T03:23:28.009Z,966.33
2022-12-20T03:24:27.987Z,966.34
2022-12-20T03:25:27.935Z,966.33
2022-12-20T03:26:28.003Z,966.35
2022-12-20T03:27:27.974Z,966.3
2022-12-20T03:28:27.925Z,966.34
2022-12-20T03:29:27.929Z,966.3
2022-12-20T03:30:27.982Z,966.29
2022-12-20T03:31:28.101Z,966.3
2022-12-20T03:32:28.016Z,966.29
2022-12-20T03:33:27.979Z,966.21
2022-12-20T03:34:27.935Z,966.19
2022-12-20T03:35:28.013Z,966.14
2022-12-20T03:36:27.969Z,966.16
2022-12-20T03:38:28.085Z,966.13
2022-12-20T03:39:27.936Z,966.14
2022-12-20T03:40:27.939Z,966.13
2022-12-20T03:41:27.927Z,966.12
2022-12-20T03:42:27.927Z,966.11
2022-12-20T03:43:27.935Z,966.09
2022-12-20T03:44:28.003Z,966.08
2022-12-20T03:45:27.933Z,966.06
2022-12-20T03:46:28.103Z,966.1
2022-12-20T03:48:28.020Z,966.11
2022-12-20T03:49:29.367Z,966.07
2022-12-20T03:50:27.945Z,966.12
2022-12-20T03:51:27.971Z,966.02
2022-12-20T03:52:27.939Z,966.13
2022-12-20T03:53:27.957Z,966.03
2022-12-20T03:54:28.017Z,966.12
2022-12-20T03:55:28.080Z,966.04
2022-12-20T03:56:28.144Z,966.05
2022-12-20T03:58:27.973Z,966.04
2022-12-20T03:59:28.045Z,966.1
2022-12-20T04:00:27.966Z,966.07
2022-12-20T04:01:28.055Z,966.09
2022-12-20T04:02:28.251Z,966.03
2022-12-20T04:03:28.180Z,966.04
2022-12-20T04:04:28.098Z,966
2022-12-20T04:05:28.057Z,965.92
2022-12-20T04:06:28.129Z,965.96
2022-12-20T04:07:28.085Z,965.95
2022-12-20T04:09:28.145Z,965.96
2022-12-20T04:10:28.090Z,965.95
2022-12-20T04:11:28.061Z,966
2022-12-20T04:12:28.019Z,965.94
2022-12-20T04:13:28.086Z,965.95
2022-12-20T04:15:28.149Z,965.93
2022-12-20T04:16:28.183Z,966.01
2022-12-20T04:19:28.113Z,965.99
2022-12-20T04:20:28.068Z,965.92
2022-12-20T04:21:28.129Z,965.87
2022-12-20T04:23:28.090Z,965.96
2022-12-20T04:25:28.023Z,965.86
2022-12-20T04:26:28.073Z,965.89
2022-12-20T04:27:28.157Z,965.93
2022-12-20T04:28:28.014Z,965.96
2022-12-20T04:29:28.091Z,966.02
2022-12-20T04:30:28.024Z,965.99
2022-12-20T04:33:28.297Z,966.04
2022-12-20T04:34:28.056Z,966.08
2022-12-20T04:35:28.213Z,966.07
2022-12-20T04:36:28.168Z,966.01
2022-12-20T04:37:28.057Z,966.04
2022-12-20T04:38:28.110Z,966.05
2022-12-20T04:39:28.167Z,966.04
2022-12-20T04:40:28.137Z,966.05
2022-12-20T04:41:28.107Z,965.97
2022-12-20T04:42:28.177Z,966.01
2022-12-20T04:43:28.189Z,966.04
2022-12-20T04:44:28.100Z,966.07
2022-12-20T04:45:28.202Z,966.06
2022-12-20T04:46:28.272Z,966.09
2022-12-20T04:47:28.233Z,966.1
2022-12-20T04:48:55.525Z,966.09
2022-12-20T04:49:28.307Z,966.1
2022-12-20T04:50:28.221Z,966.08
2022-12-20T04:54:28.259Z,966.03
2022-12-20T04:55:28.162Z,965.94
2022-12-20T04:56:28.282Z,965.97
2022-12-20T04:57:28.227Z,965.95
2022-12-20T04:58:28.159Z,965.99
2022-12-20T04:59:28.221Z,965.98
2022-12-20T05:00:28.092Z,966.02
2022-12-20T05:01:28.323Z,965.98
2022-12-20T05:02:28.299Z,966
2022-12-20T05:04:35.167Z,966.06
2022-12-20T05:05:28.238Z,966.02
2022-12-20T05:06:28.101Z,965.99
2022-12-20T05:07:28.282Z,966.03
2022-12-20T05:08:28.119Z,966.08
2022-12-20T05:09:28.205Z,966.07
2022-12-20T05:11:28.220Z,965.98
2022-12-20T05:12:28.239Z,965.96
2022-12-20T05:13:28.291Z,965.92
2022-12-20T05:14:28.244Z,965.97
2022-12-20T05:15:28.227Z,965.98
2022-12-20T05:16:28.214Z,965.99
2022-12-20T05:17:28.272Z,965.96
2022-12-20T05:18:28.251Z,965.95
2022-12-20T05:19:28.192Z,965.91
2022-12-20T05:20:28.166Z,965.93
2022-12-20T05:21:28.216Z,965.9
2022-12-20T05:22:28.167Z,965.95
2022-12-20T05:23:28.151Z,965.92
2022-12-20T05:25:28.156Z,965.91
2022-12-20T05:26:28.269Z,965.9
2022-12-20T05:27:28.232Z,965.92
2022-12-20T05:28:28.311Z,965.88
2022-12-20T05:29:28.180Z,965.89
2022-12-20T05:30:28.149Z,965.84
2022-12-20T05:32:28.326Z,965.8
2022-12-20T05:33:33.798Z,965.84
2022-12-20T05:34:28.182Z,965.83
2022-12-20T05:35:28.264Z,965.79
2022-12-20T05:36:28.183Z,965.84
2022-12-20T05:37:28.309Z,965.83
2022-12-20T05:39:28.238Z,965.82
2022-12-20T05:40:28.308Z,965.83
2022-12-20T05:41:28.282Z,965.78
2022-12-20T05:42:28.364Z,965.8
2022-12-20T05:43:28.328Z,965.79
2022-12-20T05:44:28.282Z,965.8
2022-12-20T05:45:28.353Z,965.78
2022-12-20T05:46:28.392Z,965.75
2022-12-20T05:48:28.358Z,965.71
2022-12-20T05:49:28.318Z,965.76
2022-12-20T05:50:28.292Z,965.72
2022-12-20T05:51:28.220Z,965.67
2022-12-20T05:52:28.319Z,965.61
2022-12-20T05:53:28.300Z,965.64
2022-12-20T05:54:28.212Z,965.59
2022-12-20T05:55:28.335Z,965.54
2022-12-20T05:57:28.439Z,965.57
2022-12-20T05:58:28.357Z,965.54
2022-12-20T05:59:28.234Z,965.53
2022-12-20T06:00:28.240Z,965.56
2022-12-20T06:01:28.377Z,965.57
2022-12-20T06:03:28.274Z,965.64
2022-12-20T06:04:28.349Z,965.65
2022-12-20T06:05:28.252Z,965.63
2022-12-20T06:06:28.373Z,965.64
2022-12-20T06:07:28.350Z,965.65
2022-12-20T06:08:28.315Z,965.67
2022-12-20T06:09:28.385Z,965.7
2022-12-20T06:10:28.376Z,965.67
2022-12-20T06:11:30.331Z,965.68
2022-12-20T06:12:28.397Z,965.69
2022-12-20T06:13:28.276Z,965.73
2022-12-20T06:15:28.421Z,965.68
2022-12-20T06:17:28.305Z,965.67
2022-12-20T06:18:28.278Z,965.7
2022-12-20T06:19:28.315Z,965.69
2022-12-20T06:22:28.420Z,965.67
2022-12-20T06:23:28.489Z,965.65
2022-12-20T06:25:28.602Z,965.59
2022-12-20T06:26:28.494Z,965.61
2022-12-20T06:27:28.460Z,965.58
2022-12-20T06:28:28.386Z,965.56
2022-12-20T06:29:28.349Z,965.55
2022-12-20T06:31:28.532Z,965.52
2022-12-20T06:32:28.340Z,965.5
2022-12-20T06:33:28.432Z,965.48
2022-12-20T06:35:28.360Z,965.47
2022-12-20T06:37:28.456Z,965.5
2022-12-20T06:38:28.506Z,965.47
2022-12-20T06:39:28.426Z,965.46
2022-12-20T06:40:28.497Z,965.47
2022-12-20T06:41:28.481Z,965.46
2022-12-20T06:42:28.450Z,965.47
2022-12-20T06:43:28.391Z,965.49
2022-12-20T06:44:28.621Z,965.52
2022-12-20T06:45:28.486Z,965.58
2022-12-20T06:46:28.660Z,965.56
2022-12-20T06:47:28.359Z,965.57
2022-12-20T06:48:28.530Z,965.58
2022-12-20T06:49:28.436Z,965.59
2022-12-20T06:50:28.492Z,965.6
2022-12-20T06:51:28.447Z,965.61
2022-12-20T06:52:28.522Z,965.6
2022-12-20T06:53:28.390Z,965.64
2022-12-20T06:54:28.444Z,965.68
2022-12-20T06:57:28.447Z,965.69
2022-12-20T06:58:28.548Z,965.7
2022-12-20T06:59:28.503Z,965.69
2022-12-20T07:00:28.451Z,965.7
2022-12-20T07:01:28.613Z,965.69
2022-12-20T07:02:28.536Z,965.7
2022-12-20T07:03:28.520Z,965.67
2022-12-20T07:05:28.406Z,965.63
2022-12-20T07:06:28.501Z,965.6
2022-12-20T07:07:28.547Z,965.59
2022-12-20T07:08:28.493Z,965.6
2022-12-20T07:09:28.563Z,965.59
2022-12-20T07:10:28.545Z,965.58
2022-12-20T07:11:28.483Z,965.6
2022-12-20T07:12:28.389Z,965.66
2022-12-20T07:13:28.556Z,965.7
2022-12-20T07:14:28.512Z,965.64
2022-12-20T07:15:28.547Z,965.6
2022-12-20T07:16:28.602Z,965.62
2022-12-20T07:17:28.514Z,965.6
2022-12-20T07:18:28.606Z,965.56
2022-12-20T07:20:28.574Z,965.53
2022-12-20T07:21:28.611Z,965.52
2022-12-20T07:22:28.546Z,965.49
2022-12-20T07:23:28.509Z,965.5
2022-12-20T07:24:28.596Z,965.48
2022-12-20T07:25:28.418Z,965.46
2022-12-20T07:26:28.524Z,965.44
2022-12-20T07:27:28.582Z,965.45
2022-12-20T07:28:28.439Z,965.49
2022-12-20T07:29:28.518Z,965.5
2022-12-20T07:30:28.492Z,965.53
2022-12-20T07:31:28.652Z,965.55
2022-12-20T07:32:28.514Z,965.58
2022-12-20T07:33:28.590Z,965.55
2022-12-20T07:34:28.466Z,965.59
2022-12-20T07:35:28.537Z,965.57
2022-12-20T07:36:28.497Z,965.54
2022-12-20T07:37:28.584Z,965.55
2022-12-20T07:38:28.524Z,965.57
2022-12-20T07:40:28.742Z,965.55
2022-12-20T07:41:28.548Z,965.57
2022-12-20T07:42:33.865Z,965.62
2022-12-20T07:43:28.934Z,965.68
2022-12-20T07:44:28.543Z,965.77
2022-12-20T07:45:28.639Z,965.76
2022-12-20T07:46:28.675Z,965.81
2022-12-20T07:47:28.543Z,965.82
2022-12-20T07:48:28.500Z,965.81
2022-12-20T07:49:28.518Z,965.78
2022-12-20T07:50:28.723Z,965.75
2022-12-20T07:51:28.644Z,965.73
2022-12-20T07:52:28.583Z,965.71
2022-12-20T07:53:28.564Z,965.7
2022-12-20T07:54:28.616Z,965.68
2022-12-20T07:55:28.498Z,965.73
2022-12-20T07:57:28.644Z,965.72
2022-12-20T07:59:28.665Z,965.73
2022-12-20T08:00:28.533Z,965.75
2022-12-20T08:01:28.834Z,965.71
2022-12-20T08:02:28.795Z,965.69
2022-12-20T08:03:28.678Z,965.67
2022-12-20T08:04:28.605Z,965.64
2022-12-20T08:05:28.600Z,965.62
2022-12-20T08:06:28.651Z,965.61
2022-12-20T08:07:28.604Z,965.59
2022-12-20T08:08:28.699Z,965.6
2022-12-20T08:09:28.645Z,965.65
2022-12-20T08:10:28.652Z,965.67
2022-12-20T08:11:28.676Z,965.63
2022-12-20T08:12:28.658Z,965.65
2022-12-20T08:14:28.690Z,965.58
2022-12-20T08:15:28.667Z,965.61
2022-12-20T08:16:28.643Z,965.56
2022-12-20T08:17:28.690Z,965.55
2022-12-20T08:18:28.670Z,965.59
2022-12-20T08:19:32.365Z,965.52
2022-12-20T08:20:28.697Z,965.51
2022-12-20T08:21:28.542Z,965.5
2022-12-20T08:22:28.637Z,965.45
2022-12-20T08:23:28.694Z,965.41
2022-12-20T08:24:28.666Z,965.39
2022-12-20T08:25:28.713Z,965.4
2022-12-20T08:26:32.730Z,965.38
2022-12-20T08:27:28.672Z,965.42
2022-12-20T08:31:28.892Z,965.37
2022-12-20T08:34:28.696Z,965.33
2022-12-20T08:35:28.736Z,965.35
2022-12-20T08:36:28.773Z,965.27
2022-12-20T08:37:28.637Z,965.29
2022-12-20T08:38:28.709Z,965.25
2022-12-20T08:41:28.831Z,965.26
2022-12-20T08:42:28.716Z,965.28
2022-12-20T08:43:28.758Z,965.29
2022-12-20T08:44:28.728Z,965.3
2022-12-20T08:45:28.693Z,965.28
2022-12-20T08:47:28.797Z,965.26
2022-12-20T08:48:28.705Z,965.28
2022-12-20T08:49:28.765Z,965.32
2022-12-20T08:50:28.728Z,965.35
2022-12-20T08:51:28.907Z,965.33
2022-12-20T08:53:28.743Z,965.3
2022-12-20T08:54:28.634Z,965.36
2022-12-20T08:55:29.198Z,965.33
2022-12-20T08:56:28.897Z,965.4
2022-12-20T08:57:28.751Z,965.41
2022-12-20T08:58:28.652Z,965.47
2022-12-20T08:59:28.743Z,965.43
2022-12-20T09:00:28.706Z,965.46
2022-12-20T09:01:28.907Z,965.47
2022-12-20T09:02:28.775Z,965.49
2022-12-20T09:04:28.789Z,965.45
2022-12-20T09:05:28.747Z,965.44
2022-12-20T09:07:28.684Z,965.43
2022-12-20T09:08:28.675Z,965.37
2022-12-20T09:09:28.821Z,965.41
2022-12-20T09:11:28.867Z,965.4
2022-12-20T09:12:28.842Z,965.45
2022-12-20T09:14:28.684Z,965.4
2022-12-20T09:16:29.025Z,965.42
2022-12-20T09:17:28.811Z,965.44
2022-12-20T09:18:28.683Z,965.43
2022-12-20T09:20:28.769Z,965.47
2022-12-20T09:21:28.737Z,965.43
2022-12-20T09:22:28.799Z,965.47
2022-12-20T09:23:28.782Z,965.46
2022-12-20T09:24:28.698Z,965.48
2022-12-20T09:25:28.802Z,965.42
2022-12-20T09:26:28.782Z,965.41
2022-12-20T09:27:28.841Z,965.4
2022-12-20T09:28:28.812Z,965.39
2022-12-20T09:29:35.228Z,965.37
2022-12-20T09:30:28.844Z,965.39
2022-12-20T09:31:28.782Z,965.41
2022-12-20T09:32:28.780Z,965.39
2022-12-20T09:33:28.847Z,965.4
2022-12-20T09:34:28.822Z,965.43
2022-12-20T09:35:28.784Z,965.42
2022-12-20T09:36:28.847Z,965.4
2022-12-20T09:37:28.829Z,965.42
2022-12-20T09:38:28.933Z,965.39
2022-12-20T09:39:28.854Z,965.37
2022-12-20T09:40:28.816Z,965.42
2022-12-20T09:41:28.897Z,965.41
2022-12-20T09:42:28.870Z,965.43
2022-12-20T09:44:28.829Z,965.45
2022-12-20T09:45:28.762Z,965.43
2022-12-20T09:46:28.874Z,965.45
2022-12-20T09:47:28.895Z,965.43
2022-12-20T09:48:28.900Z,965.41
2022-12-20T09:50:28.921Z,965.33
2022-12-20T09:51:28.878Z,965.31
2022-12-20T09:52:28.838Z,965.28
2022-12-20T09:53:29.181Z,965.22
2022-12-20T09:54:28.874Z,965.21
2022-12-20T09:55:28.864Z,965.23
2022-12-20T09:56:28.826Z,965.22
2022-12-20T09:57:29.023Z,965.25
2022-12-20T09:58:28.858Z,965.23
2022-12-20T09:59:29.287Z,965.24
2022-12-20T10:00:28.888Z,965.28
2022-12-20T10:01:32.711Z,965.23
2022-12-20T10:03:29.253Z,965.17
2022-12-20T10:04:29.114Z,965.16
2022-12-20T10:05:28.864Z,965.1
2022-12-20T10:06:28.805Z,965.14
2022-12-20T10:07:28.791Z,965.11
2022-12-20T10:08:28.799Z,965.09
2022-12-20T10:09:28.908Z,965.12
2022-12-20T10:10:28.864Z,965.1
2022-12-20T10:11:33.056Z,965.09
2022-12-20T10:12:28.803Z,965.08
2022-12-20T10:13:28.974Z,965.06
2022-12-20T10:14:28.835Z,965.07
2022-12-20T10:15:28.909Z,964.99
2022-12-20T10:16:28.878Z,964.94
2022-12-20T10:17:32.317Z,964.95
2022-12-20T10:18:28.907Z,964.93
2022-12-20T10:19:28.982Z,964.95
2022-12-20T10:20:28.811Z,964.94
2022-12-20T10:21:28.918Z,964.92
2022-12-20T10:22:28.833Z,964.88
2022-12-20T10:23:32.931Z,964.89
2022-12-20T10:24:29.149Z,964.87
2022-12-20T10:25:28.888Z,964.86
2022-12-20T10:26:28.962Z,964.82
2022-12-20T10:27:28.913Z,964.8
2022-12-20T10:28:28.986Z,964.77
2022-12-20T10:29:28.948Z,964.75
2022-12-20T10:30:28.927Z,964.67
2022-12-20T10:31:28.989Z,964.65
2022-12-20T10:33:29.053Z,964.63
2022-12-20T10:34:35.043Z,964.65
2022-12-20T10:35:29.030Z,964.57
2022-12-20T10:36:28.925Z,964.56
2022-12-20T10:37:29.004Z,964.55
2022-12-20T10:38:28.973Z,964.51
2022-12-20T10:40:46.548Z,964.46
2022-12-20T10:41:29.179Z,964.45
2022-12-20T10:42:29.044Z,964.46
2022-12-20T10:43:28.899Z,964.45
2022-12-20T10:44:28.989Z,964.48
2022-12-20T10:45:35.776Z,964.44
2022-12-20T10:46:28.940Z,964.4
2022-12-20T10:47:28.994Z,964.43
2022-12-20T10:48:29.070Z,964.41
2022-12-20T10:49:28.895Z,964.38
2022-12-20T10:50:28.896Z,964.34
2022-12-20T10:51:29.047Z,964.31
2022-12-20T10:52:28.903Z,964.29
2022-12-20T10:53:28.991Z,964.23
2022-12-20T10:55:29.019Z,964.19
2022-12-20T10:56:29.000Z,964.14
2022-12-20T10:57:29.062Z,964.04
2022-12-20T10:58:28.919Z,964
2022-12-20T10:59:29.006Z,963.92
2022-12-20T11:00:28.922Z,963.87
2022-12-20T11:02:34.883Z,963.9
2022-12-20T11:04:29.352Z,963.92
2022-12-20T11:05:28.952Z,963.94
2022-12-20T11:06:29.109Z,963.93
2022-12-20T11:07:29.047Z,963.92
2022-12-20T11:08:42.940Z,963.87
2022-12-20T11:09:29.110Z,963.81
2022-12-20T11:10:29.047Z,963.8
2022-12-20T11:11:29.008Z,963.79
2022-12-20T11:12:28.959Z,963.75
2022-12-20T11:14:34.521Z,963.76
2022-12-20T11:15:33.627Z,963.81
2022-12-20T11:16:29.248Z,963.83
2022-12-20T11:17:29.044Z,963.84
2022-12-20T11:18:28.977Z,963.88
2022-12-20T11:20:29.031Z,963.87
2022-12-20T11:21:29.092Z,963.85
2022-12-20T11:22:28.969Z,963.78
2022-12-20T11:24:29.017Z,963.68
2022-12-20T11:25:28.967Z,963.66
2022-12-20T11:26:29.138Z,963.63
2022-12-20T11:27:28.986Z,963.6
2022-12-20T11:29:29.039Z,963.5
2022-12-20T11:30:29.122Z,963.48
2022-12-20T11:31:29.076Z,963.39
2022-12-20T11:32:29.141Z,963.35
2022-12-20T11:34:29.082Z,963.31
2022-12-20T11:35:29.144Z,963.3
2022-12-20T11:36:29.025Z,963.32
2022-12-20T11:37:29.069Z,963.33
2022-12-20T11:38:29.005Z,963.35
2022-12-20T11:39:29.011Z,963.32
2022-12-20T11:41:29.069Z,963.27
2022-12-20T11:42:29.166Z,963.3
2022-12-20T11:43:29.097Z,963.22
2022-12-20T11:44:29.171Z,963.21
2022-12-20T11:45:29.259Z,963.24
2022-12-20T11:46:29.134Z,963.21
2022-12-20T11:47:30.231Z,963.22
2022-12-20T11:48:29.142Z,963.23
2022-12-20T11:49:29.092Z,963.26
2022-12-20T11:51:29.185Z,963.28
2022-12-20T11:52:29.106Z,963.31
2022-12-20T11:53:29.044Z,963.26
2022-12-20T11:54:29.151Z,963.22
2022-12-20T11:55:29.047Z,963.16
2022-12-20T11:56:29.056Z,963.21
2022-12-20T11:57:29.171Z,963.18
2022-12-20T11:58:29.048Z,963.14
2022-12-20T12:00:29.149Z,963.09
2022-12-20T12:01:29.282Z,963.08
2022-12-20T12:02:29.122Z,963.12
2022-12-20T12:03:29.167Z,963.07
2022-12-20T12:04:29.245Z,963.04
2022-12-20T12:05:29.329Z,963.09
2022-12-20T12:06:29.070Z,963.07
2022-12-20T12:07:29.139Z,963.09
2022-12-20T12:08:29.192Z,963.07
2022-12-20T12:09:29.156Z,963.11
2022-12-20T12:12:29.182Z,963.11
2022-12-20T12:13:29.358Z,963.13
2022-12-20T12:14:29.092Z,963.1
2022-12-20T12:15:29.258Z,963.09
2022-12-20T12:16:29.132Z,963.04
2022-12-20T12:17:29.232Z,963.05
2022-12-20T12:18:29.171Z,963
2022-12-20T12:19:29.227Z,962.95
2022-12-20T12:20:29.204Z,962.96
2022-12-20T12:21:29.164Z,962.89
2022-12-20T12:22:29.246Z,962.91
2022-12-20T12:23:29.206Z,962.88
2022-12-20T12:24:29.165Z,962.92
2022-12-20T12:25:29.150Z,962.93
2022-12-20T12:26:29.214Z,962.9
2022-12-20T12:27:29.587Z,962.94
2022-12-20T12:28:29.161Z,962.93
2022-12-20T12:29:29.222Z,962.94
2022-12-20T12:30:29.275Z,962.95
2022-12-20T12:31:29.238Z,962.96
2022-12-20T12:32:29.218Z,963
2022-12-20T12:34:29.211Z,962.97
2022-12-20T12:36:29.356Z,962.96
2022-12-20T12:38:29.152Z,962.98
2022-12-20T12:39:29.308Z,962.96
2022-12-20T12:40:29.257Z,962.92
2022-12-20T12:41:29.229Z,962.88
2022-12-20T12:44:29.336Z,962.91
2022-12-20T12:45:29.412Z,962.89
2022-12-20T12:46:29.309Z,962.9
2022-12-20T12:47:29.243Z,962.84
2022-12-20T12:48:29.199Z,962.86
2022-12-20T12:49:29.272Z,962.83
2022-12-20T12:50:29.180Z,962.85
2022-12-20T12:51:29.184Z,962.82
2022-12-20T12:52:33.789Z,962.8
2022-12-20T12:53:29.246Z,962.78
2022-12-20T12:54:29.321Z,962.8
2022-12-20T12:55:29.272Z,962.79
2022-12-20T12:56:43.581Z,962.75
2022-12-20T12:57:29.355Z,962.79
2022-12-20T12:58:29.296Z,962.8
2022-12-20T13:00:29.324Z,962.81
2022-12-20T13:01:29.301Z,962.84
2022-12-20T13:02:29.537Z,962.83
2022-12-20T13:03:29.254Z,962.86
2022-12-20T13:04:29.204Z,962.89
2022-12-20T13:05:29.202Z,962.92
2022-12-20T13:06:29.219Z,962.98
2022-12-20T13:07:29.297Z,962.96
2022-12-20T13:08:29.255Z,962.97
2022-12-20T13:09:29.224Z,962.98
2022-12-20T13:10:29.299Z,962.95
2022-12-20T13:11:29.222Z,962.93
2022-12-20T13:12:29.335Z,962.94
2022-12-20T13:13:29.219Z,962.9
2022-12-20T13:14:29.227Z,962.86
2022-12-20T13:15:29.243Z,962.85
2022-12-20T13:16:48.642Z,962.86
2022-12-20T13:17:29.316Z,962.83
2022-12-20T13:18:29.398Z,962.8
2022-12-20T13:19:29.308Z,962.78
2022-12-20T13:20:29.235Z,962.79
2022-12-20T13:21:29.230Z,962.68
2022-12-20T13:22:29.306Z,962.72
2022-12-20T13:23:29.247Z,962.73
2022-12-20T13:25:29.368Z,962.76
2022-12-20T13:27:29.363Z,962.74
2022-12-20T13:28:29.317Z,962.7
2022-12-20T13:29:29.272Z,962.67
2022-12-20T13:30:29.456Z,962.61
2022-12-20T13:31:29.398Z,962.62
2022-12-20T13:32:29.476Z,962.48
2022-12-20T13:33:29.365Z,962.51
2022-12-20T13:34:29.433Z,962.45
2022-12-20T13:35:29.283Z,962.47
2022-12-20T13:36:29.365Z,962.5
2022-12-20T13:37:29.445Z,962.47
2022-12-20T13:38:29.285Z,962.46
2022-12-20T13:39:29.377Z,962.45
2022-12-20T13:40:29.293Z,962.43
2022-12-20T13:41:34.359Z,962.46
2022-12-20T13:42:29.382Z,962.47
2022-12-20T13:43:29.290Z,962.44
2022-12-20T13:44:29.429Z,962.48
2022-12-20T13:46:29.380Z,962.46
2022-12-20T13:47:29.417Z,962.5
2022-12-20T13:48:29.378Z,962.47
2022-12-20T13:49:29.472Z,962.48
2022-12-20T13:50:29.430Z,962.44
2022-12-20T13:51:29.308Z,962.47
2022-12-20T13:53:29.361Z,962.49
2022-12-20T13:54:29.420Z,962.55
2022-12-20T13:55:29.341Z,962.54
2022-12-20T13:56:29.433Z,962.5
2022-12-20T13:57:29.397Z,962.51
2022-12-20T13:58:29.463Z,962.53
2022-12-20T13:59:29.434Z,962.51
2022-12-20T14:00:29.397Z,962.49
2022-12-20T14:02:29.543Z,962.5
2022-12-20T14:03:29.529Z,962.48
2022-12-20T14:05:29.442Z,962.46
2022-12-20T14:06:29.519Z,962.4
2022-12-20T14:07:29.353Z,962.38
2022-12-20T14:08:29.348Z,962.37
2022-12-20T14:09:29.511Z,962.39
2022-12-20T14:10:29.495Z,962.35
2022-12-20T14:11:29.451Z,962.36
2022-12-20T14:12:36.165Z,962.38
2022-12-20T14:13:29.506Z,962.34
2022-12-20T14:14:29.451Z,962.36
2022-12-20T14:15:29.532Z,962.38
2022-12-20T14:16:29.508Z,962.28
2022-12-20T14:17:29.371Z,962.22
2022-12-20T14:20:29.521Z,962.23
2022-12-20T14:21:29.401Z,962.2
2022-12-20T14:23:29.484Z,962.18
2022-12-20T14:24:30.537Z,962.16
2022-12-20T14:25:29.505Z,962.22
2022-12-20T14:26:29.461Z,962.23